sensor_id;sensor_type;location;lat;lon;timestamp;temperature;humidity
9939;DHT22;5008;50.656;7.188;2023-05-10T03:36:31;13.50;99.90
9939;DHT22;5008;50.656;7.188;2023-05-10T03:38:59;13.50;99.90
9939;DHT22;5008;50.656;7.188;2023-05-10T03:41:26;13.50;99.90
9939;DHT22;5008;50.656;7.188;2023-05-10T03:43:53;13.50;99.90
9939;DHT22;5008;50.656;7.188;2023-05-10T03:46:20;13.50;99.90
9939;DHT22;5008;50.656;7.188;2023-05-10T03:48:48;13.50;99.90
9939;DHT22;5008;50.656;7.188;2023-05-10T03:51:15;13.50;99.90
9939;DHT22;5008;50.656;7.188;2023-05-10T03:53:43;13.50;99.90
9939;DHT22;5008;50.656;7.188;2023-05-10T03:56:10;13.50;99.90
9939;DHT22;5008;50.656;7.188;2023-05-10T03:58:37;13.50;99.90
9939;DHT22;5008;50.656;7.188;2023-05-10T04:01:03;13.60;99.90
9939;DHT22;5008;50.656;7.188;2023-05-10T04:03:30;13.50;99.90
9939;DHT22;5008;50.656;7.188;2023-05-10T04:06:00;13.60;99.90
9939;DHT22;5008;50.656;7.188;2023-05-10T04:08:28;13.50;99.90
9939;DHT22;5008;50.656;7.188;2023-05-10T04:11:04;13.60;99.90
9939;DHT22;5008;50.656;7.188;2023-05-10T04:13:31;13.50;99.90
9939;DHT22;5008;50.656;7.188;2023-05-10T04:15:58;13.50;99.90
9939;DHT22;5008;50.656;7.188;2023-05-10T04:18:25;13.60;99.90
9939;DHT22;5008;50.656;7.188;2023-05-10T04:20:52;13.60;99.90
9939;DHT22;5008;50.656;7.188;2023-05-10T04:23:19;13.60;99.90
9939;DHT22;5008;50.656;7.188;2023-05-10T04:25:46;13.60;99.90
9939;DHT22;5008;50.656;7.188;2023-05-10T04:28:14;13.60;99.90
9939;DHT22;5008;50.656;7.188;2023-05-10T04:30:41;13.60;99.90
9939;DHT22;5008;50.656;7.188;2023-05-10T04:33:07;13.60;99.90
9939;DHT22;5008;50.656;7.188;2023-05-10T04:35:35;13.60;99.90
9939;DHT22;5008;50.656;7.188;2023-05-10T04:38:01;13.60;99.90
9939;DHT22;5008;50.656;7.188;2023-05-10T04:40:28;13.70;99.90
9939;DHT22;5008;50.656;7.188;2023-05-10T04:42:55;13.70;99.90
9939;DHT22;5008;50.656;7.188;2023-05-10T04:45:23;13.70;99.90
9939;DHT22;5008;50.656;7.188;2023-05-10T04:47:50;13.70;99.90
9939;DHT22;5008;50.656;7.188;2023-05-10T04:50:17;13.70;99.90
9939;DHT22;5008;50.656;7.188;2023-05-10T04:52:44;13.70;99.90
9939;DHT22;5008;50.656;7.188;2023-05-10T04:55:11;13.70;99.90
9939;DHT22;5008;50.656;7.188;2023-05-10T04:57:38;13.70;99.90
9939;DHT22;5008;50.656;7.188;2023-05-10T05:00:06;13.80;99.90
9939;DHT22;5008;50.656;7.188;2023-05-10T05:02:35;13.80;99.90
9939;DHT22;5008;50.656;7.188;2023-05-10T05:05:01;13.80;99.90
9939;DHT22;5008;50.656;7.188;2023-05-10T05:07:28;13.80;99.90
9939;DHT22;5008;50.656;7.188;2023-05-10T05:09:56;13.80;99.90
9939;DHT22;5008;50.656;7.188;2023-05-10T05:12:25;13.80;99.90
9939;DHT22;5008;50.656;7.188;2023-05-10T05:14:52;13.80;99.90
9939;DHT22;5008;50.656;7.188;2023-05-10T05:17:18;13.90;99.90
9939;DHT22;5008;50.656;7.188;2023-05-10T05:19:47;13.90;99.90
9939;DHT22;5008;50.656;7.188;2023-05-10T05:22:13;13.90;99.90
9939;DHT22;5008;50.656;7.188;2023-05-10T05:24:40;13.90;99.90
9939;DHT22;5008;50.656;7.188;2023-05-10T05:27:07;13.90;99.90
9939;DHT22;5008;50.656;7.188;2023-05-10T05:29:34;13.90;99.90
9939;DHT22;5008;50.656;7.188;2023-05-10T05:32:03;14.00;99.90
9939;DHT22;5008;50.656;7.188;2023-05-10T05:34:29;14.00;99.90
9939;DHT22;5008;50.656;7.188;2023-05-10T05:36:58;14.00;99.90
9939;DHT22;5008;50.656;7.188;2023-05-10T05:39:24;14.00;99.90
9939;DHT22;5008;50.656;7.188;2023-05-10T05:41:51;14.00;99.90
9939;DHT22;5008;50.656;7.188;2023-05-10T05:44:18;14.00;99.90
9939;DHT22;5008;50.656;7.188;2023-05-10T05:46:56;14.00;99.90
9939;DHT22;5008;50.656;7.188;2023-05-10T05:49:23;14.00;99.90
9939;DHT22;5008;50.656;7.188;2023-05-10T05:51:49;14.00;99.90
9939;DHT22;5008;50.656;7.188;2023-05-10T05:54:18;14.10;99.90
9939;DHT22;5008;50.656;7.188;2023-05-10T05:56:45;14.10;99.90
9939;DHT22;5008;50.656;7.188;2023-05-10T05:59:11;14.10;99.90
9939;DHT22;5008;50.656;7.188;2023-05-10T06:02:02;14.10;99.90
9939;DHT22;5008;50.656;7.188;2023-05-10T06:04:29;14.10;99.90
9939;DHT22;5008;50.656;7.188;2023-05-10T06:06:56;14.10;99.90
9939;DHT22;5008;50.656;7.188;2023-05-10T06:09:24;14.10;99.90
9939;DHT22;5008;50.656;7.188;2023-05-10T06:11:50;14.20;99.90
9939;DHT22;5008;50.656;7.188;2023-05-10T06:14:19;14.20;99.90
9939;DHT22;5008;50.656;7.188;2023-05-10T06:16:46;14.20;99.90
9939;DHT22;5008;50.656;7.188;2023-05-10T06:19:13;14.30;99.90
9939;DHT22;5008;50.656;7.188;2023-05-10T06:21:40;14.30;99.90
9939;DHT22;5008;50.656;7.188;2023-05-10T06:24:07;14.30;99.90
9939;DHT22;5008;50.656;7.188;2023-05-10T06:26:35;14.40;99.90
9939;DHT22;5008;50.656;7.188;2023-05-10T06:29:02;14.40;99.90
9939;DHT22;5008;50.656;7.188;2023-05-10T06:31:29;14.50;99.90
9939;DHT22;5008;50.656;7.188;2023-05-10T06:33:55;14.50;99.90
9939;DHT22;5008;50.656;7.188;2023-05-10T06:36:23;14.50;99.90
9939;DHT22;5008;50.656;7.188;2023-05-10T06:38:51;14.60;99.90
9939;DHT22;5008;50.656;7.188;2023-05-10T06:41:18;14.60;99.90
9939;DHT22;5008;50.656;7.188;2023-05-10T06:43:59;14.60;99.90
9939;DHT22;5008;50.656;7.188;2023-05-10T06:46:26;14.60;99.90
9939;DHT22;5008;50.656;7.188;2023-05-10T06:48:53;14.60;99.90
9939;DHT22;5008;50.656;7.188;2023-05-10T06:51:19;14.60;99.90
9939;DHT22;5008;50.656;7.188;2023-05-10T06:53:46;14.70;99.90
9939;DHT22;5008;50.656;7.188;2023-05-10T06:56:13;14.70;99.90
9939;DHT22;5008;50.656;7.188;2023-05-10T06:58:40;14.60;99.90
9939;DHT22;5008;50.656;7.188;2023-05-10T07:01:08;14.60;99.90
9939;DHT22;5008;50.656;7.188;2023-05-10T07:03:35;14.60;99.90
9939;DHT22;5008;50.656;7.188;2023-05-10T07:06:03;14.60;99.90
9939;DHT22;5008;50.656;7.188;2023-05-10T07:08:30;14.70;99.90
9939;DHT22;5008;50.656;7.188;2023-05-10T07:11:01;14.70;99.90
9939;DHT22;5008;50.656;7.188;2023-05-10T07:13:29;14.70;99.90
9939;DHT22;5008;50.656;7.188;2023-05-10T07:15:56;14.70;99.90
9939;DHT22;5008;50.656;7.188;2023-05-10T07:18:25;14.70;99.90
9939;DHT22;5008;50.656;7.188;2023-05-10T07:20:52;14.70;99.90
9939;DHT22;5008;50.656;7.188;2023-05-10T07:23:19;14.70;99.90
9939;DHT22;5008;50.656;7.188;2023-05-10T07:25:46;14.70;99.90
9939;DHT22;5008;50.656;7.188;2023-05-10T07:28:14;14.70;99.90
9939;DHT22;5008;50.656;7.188;2023-05-10T07:30:41;14.70;99.90
9939;DHT22;5008;50.656;7.188;2023-05-10T07:33:09;14.70;99.90
9939;DHT22;5008;50.656;7.188;2023-05-10T07:35:38;14.80;99.90
9939;DHT22;5008;50.656;7.188;2023-05-10T07:38:05;14.80;99.90
9939;DHT22;5008;50.656;7.188;2023-05-10T07:40:34;14.80;99.90
9939;DHT22;5008;50.656;7.188;2023-05-10T07:43:01;14.70;99.90
9939;DHT22;5008;50.656;7.188;2023-05-10T07:45:28;14.70;99.90
9939;DHT22;5008;50.656;7.188;2023-05-10T07:47:55;14.80;99.90
9939;DHT22;5008;50.656;7.188;2023-05-10T07:50:32;14.70;99.90
9939;DHT22;5008;50.656;7.188;2023-05-10T07:53:00;14.70;99.90
9939;DHT22;5008;50.656;7.188;2023-05-10T07:55:27;14.70;99.90
9939;DHT22;5008;50.656;7.188;2023-05-10T07:57:54;14.80;99.90
9939;DHT22;5008;50.656;7.188;2023-05-10T08:00:21;14.80;99.90
9939;DHT22;5008;50.656;7.188;2023-05-10T08:02:48;14.80;99.90
9939;DHT22;5008;50.656;7.188;2023-05-10T08:05:15;14.90;99.90
9939;DHT22;5008;50.656;7.188;2023-05-10T08:07:42;14.90;99.90
9939;DHT22;5008;50.656;7.188;2023-05-10T08:10:10;15.00;99.90
9939;DHT22;5008;50.656;7.188;2023-05-10T08:12:37;15.10;99.90
9939;DHT22;5008;50.656;7.188;2023-05-10T08:15:05;15.30;99.90
9939;DHT22;5008;50.656;7.188;2023-05-10T08:17:32;15.20;99.90
9939;DHT22;5008;50.656;7.188;2023-05-10T08:19:59;15.30;99.90
9939;DHT22;5008;50.656;7.188;2023-05-10T08:22:26;15.30;99.90
9939;DHT22;5008;50.656;7.188;2023-05-10T08:24:53;15.30;99.90
9939;DHT22;5008;50.656;7.188;2023-05-10T08:27:21;15.30;99.90
9939;DHT22;5008;50.656;7.188;2023-05-10T08:29:48;15.40;99.90
9939;DHT22;5008;50.656;7.188;2023-05-10T08:32:14;15.40;99.90
9939;DHT22;5008;50.656;7.188;2023-05-10T08:34:41;15.50;99.90
9939;DHT22;5008;50.656;7.188;2023-05-10T08:37:08;15.50;99.90
9939;DHT22;5008;50.656;7.188;2023-05-10T08:39:36;15.40;99.90
9939;DHT22;5008;50.656;7.188;2023-05-10T08:42:04;15.40;99.90
9939;DHT22;5008;50.656;7.188;2023-05-10T08:44:34;15.40;99.90
9939;DHT22;5008;50.656;7.188;2023-05-10T08:47:04;15.40;99.90
9939;DHT22;5008;50.656;7.188;2023-05-10T08:49:32;15.40;99.90
9939;DHT22;5008;50.656;7.188;2023-05-10T08:52:02;15.40;99.90
9939;DHT22;5008;50.656;7.188;2023-05-10T08:54:30;15.40;99.90
9939;DHT22;5008;50.656;7.188;2023-05-10T08:56:57;15.30;99.90
9939;DHT22;5008;50.656;7.188;2023-05-10T08:59:24;15.20;99.90
9939;DHT22;5008;50.656;7.188;2023-05-10T09:01:54;15.20;99.90
9939;DHT22;5008;50.656;7.188;2023-05-10T09:04:23;15.10;99.90
9939;DHT22;5008;50.656;7.188;2023-05-10T09:06:49;15.00;99.90
9939;DHT22;5008;50.656;7.188;2023-05-10T09:09:17;14.90;99.90
9939;DHT22;5008;50.656;7.188;2023-05-10T09:11:44;14.70;99.90
9939;DHT22;5008;50.656;7.188;2023-05-10T09:14:12;14.40;99.90
9939;DHT22;5008;50.656;7.188;2023-05-10T09:16:39;14.10;99.90
9939;DHT22;5008;50.656;7.188;2023-05-10T09:19:08;13.90;99.90
9939;DHT22;5008;50.656;7.188;2023-05-10T09:21:35;13.80;99.90
9939;DHT22;5008;50.656;7.188;2023-05-10T09:24:04;13.80;99.90
9939;DHT22;5008;50.656;7.188;2023-05-10T09:26:31;13.70;99.90
9939;DHT22;5008;50.656;7.188;2023-05-10T09:29:00;13.60;99.90
9939;DHT22;5008;50.656;7.188;2023-05-10T09:31:43;13.60;99.90
9939;DHT22;5008;50.656;7.188;2023-05-10T09:34:15;13.60;99.90
9939;DHT22;5008;50.656;7.188;2023-05-10T09:36:51;13.60;99.90
9939;DHT22;5008;50.656;7.188;2023-05-10T09:39:18;13.70;99.90
9939;DHT22;5008;50.656;7.188;2023-05-10T09:41:45;13.70;99.90
9939;DHT22;5008;50.656;7.188;2023-05-10T09:44:16;13.80;99.90
9939;DHT22;5008;50.656;7.188;2023-05-10T09:46:49;14.00;99.90
9939;DHT22;5008;50.656;7.188;2023-05-10T09:49:18;14.00;99.90
9939;DHT22;5008;50.656;7.188;2023-05-10T09:51:45;14.00;99.90
9939;DHT22;5008;50.656;7.188;2023-05-10T09:54:16;14.10;99.90
9939;DHT22;5008;50.656;7.188;2023-05-10T09:56:43;14.20;99.90
9939;DHT22;5008;50.656;7.188;2023-05-10T09:59:11;14.40;99.90
9939;DHT22;5008;50.656;7.188;2023-05-10T10:01:38;14.50;99.90
9939;DHT22;5008;50.656;7.188;2023-05-10T10:04:07;14.60;99.90
9939;DHT22;5008;50.656;7.188;2023-05-10T10:06:39;14.70;99.90
9939;DHT22;5008;50.656;7.188;2023-05-10T10:09:09;14.70;99.90
9939;DHT22;5008;50.656;7.188;2023-05-10T10:11:38;14.80;99.90
9939;DHT22;5008;50.656;7.188;2023-05-10T10:14:05;14.80;99.90
9939;DHT22;5008;50.656;7.188;2023-05-10T10:16:42;14.80;99.90
9939;DHT22;5008;50.656;7.188;2023-05-10T10:19:22;14.90;99.90
9939;DHT22;5008;50.656;7.188;2023-05-10T10:21:51;15.00;99.90
9939;DHT22;5008;50.656;7.188;2023-05-10T10:24:18;15.00;99.90
9939;DHT22;5008;50.656;7.188;2023-05-10T10:26:45;15.00;99.90
9939;DHT22;5008;50.656;7.188;2023-05-10T10:29:21;15.10;99.90
9939;DHT22;5008;50.656;7.188;2023-05-10T10:31:55;15.10;99.90
9939;DHT22;5008;50.656;7.188;2023-05-10T10:34:26;15.20;99.90
9939;DHT22;5008;50.656;7.188;2023-05-10T10:37:11;15.20;99.90
9939;DHT22;5008;50.656;7.188;2023-05-10T10:39:40;15.20;99.90
9939;DHT22;5008;50.656;7.188;2023-05-10T10:42:07;15.20;99.90
9939;DHT22;5008;50.656;7.188;2023-05-10T10:44:37;15.10;99.90
9939;DHT22;5008;50.656;7.188;2023-05-10T10:47:34;15.10;99.90
9939;DHT22;5008;50.656;7.188;2023-05-10T10:50:07;15.10;99.90
9939;DHT22;5008;50.656;7.188;2023-05-10T10:52:37;15.10;99.90
9939;DHT22;5008;50.656;7.188;2023-05-10T10:55:07;15.10;99.90
9939;DHT22;5008;50.656;7.188;2023-05-10T10:57:44;15.20;99.90
9939;DHT22;5008;50.656;7.188;2023-05-10T11:00:25;15.20;99.90
9939;DHT22;5008;50.656;7.188;2023-05-10T11:03:04;15.30;99.90
9939;DHT22;5008;50.656;7.188;2023-05-10T11:05:38;15.40;99.90
9939;DHT22;5008;50.656;7.188;2023-05-10T11:08:18;15.40;99.90
9939;DHT22;5008;50.656;7.188;2023-05-10T11:11:08;15.40;99.90
9939;DHT22;5008;50.656;7.188;2023-05-10T11:13:38;15.40;99.90
9939;DHT22;5008;50.656;7.188;2023-05-10T11:16:18;15.40;99.90
9939;DHT22;5008;50.656;7.188;2023-05-10T11:18:59;15.10;99.90
9939;DHT22;5008;50.656;7.188;2023-05-10T11:21:27;15.10;99.90
9939;DHT22;5008;50.656;7.188;2023-05-10T11:23:56;15.00;99.90
9939;DHT22;5008;50.656;7.188;2023-05-10T11:26:24;15.10;99.90
9939;DHT22;5008;50.656;7.188;2023-05-10T11:28:52;15.00;99.90
9939;DHT22;5008;50.656;7.188;2023-05-10T11:31:20;15.10;99.90
9939;DHT22;5008;50.656;7.188;2023-05-10T11:33:50;15.20;99.90
9939;DHT22;5008;50.656;7.188;2023-05-10T11:36:20;15.30;99.90
9939;DHT22;5008;50.656;7.188;2023-05-10T11:38:48;15.50;99.90
9939;DHT22;5008;50.656;7.188;2023-05-10T11:41:17;15.60;99.90
9939;DHT22;5008;50.656;7.188;2023-05-10T11:43:46;15.70;99.90
9939;DHT22;5008;50.656;7.188;2023-05-10T11:46:14;15.80;99.90
9939;DHT22;5008;50.656;7.188;2023-05-10T11:48:42;15.80;99.90
9939;DHT22;5008;50.656;7.188;2023-05-10T11:51:10;15.90;99.90
9939;DHT22;5008;50.656;7.188;2023-05-10T11:53:37;16.00;99.90
9939;DHT22;5008;50.656;7.188;2023-05-10T11:56:05;16.00;99.90
9939;DHT22;5008;50.656;7.188;2023-05-10T11:58:44;16.10;99.90
9939;DHT22;5008;50.656;7.188;2023-05-10T12:01:14;16.00;99.90
9939;DHT22;5008;50.656;7.188;2023-05-10T12:03:41;16.00;99.90
9939;DHT22;5008;50.656;7.188;2023-05-10T12:06:11;16.00;99.90
9939;DHT22;5008;50.656;7.188;2023-05-10T12:08:44;16.00;99.90
9939;DHT22;5008;50.656;7.188;2023-05-10T12:11:12;16.00;99.90
9939;DHT22;5008;50.656;7.188;2023-05-10T12:13:51;15.90;99.90
9939;DHT22;5008;50.656;7.188;2023-05-10T12:16:19;15.80;99.90
9939;DHT22;5008;50.656;7.188;2023-05-10T12:18:48;15.70;99.90
9939;DHT22;5008;50.656;7.188;2023-05-10T12:21:16;15.60;99.90
9939;DHT22;5008;50.656;7.188;2023-05-10T12:23:45;15.60;99.90
9939;DHT22;5008;50.656;7.188;2023-05-10T12:26:12;15.50;99.90
9939;DHT22;5008;50.656;7.188;2023-05-10T12:28:39;15.50;99.90
9939;DHT22;5008;50.656;7.188;2023-05-10T12:31:14;15.50;99.90
9939;DHT22;5008;50.656;7.188;2023-05-10T12:33:42;15.40;99.90
9939;DHT22;5008;50.656;7.188;2023-05-10T12:36:09;15.30;99.90
9939;DHT22;5008;50.656;7.188;2023-05-10T12:38:38;15.40;99.90
9939;DHT22;5008;50.656;7.188;2023-05-10T12:41:06;15.40;99.90
9939;DHT22;5008;50.656;7.188;2023-05-10T12:43:34;15.50;99.90
9939;DHT22;5008;50.656;7.188;2023-05-10T12:46:05;15.50;99.90
9939;DHT22;5008;50.656;7.188;2023-05-10T12:48:34;15.50;99.90
9939;DHT22;5008;50.656;7.188;2023-05-10T12:51:01;15.50;99.90
9939;DHT22;5008;50.656;7.188;2023-05-10T12:53:28;15.50;99.90
9939;DHT22;5008;50.656;7.188;2023-05-10T12:55:57;15.60;99.90
9939;DHT22;5008;50.656;7.188;2023-05-10T12:58:24;15.80;99.90
9939;DHT22;5008;50.656;7.188;2023-05-10T13:00:51;16.20;99.90
9939;DHT22;5008;50.656;7.188;2023-05-10T13:03:18;16.50;99.90
9939;DHT22;5008;50.656;7.188;2023-05-10T13:05:47;16.80;99.90
9939;DHT22;5008;50.656;7.188;2023-05-10T13:08:14;16.80;99.90
9939;DHT22;5008;50.656;7.188;2023-05-10T13:10:41;16.80;99.90
9939;DHT22;5008;50.656;7.188;2023-05-10T13:13:09;16.70;99.90
9939;DHT22;5008;50.656;7.188;2023-05-10T13:15:42;16.70;99.90
9939;DHT22;5008;50.656;7.188;2023-05-10T13:18:09;16.70;99.90
9939;DHT22;5008;50.656;7.188;2023-05-10T13:20:36;16.60;99.90
9939;DHT22;5008;50.656;7.188;2023-05-10T13:23:05;16.60;99.90
9939;DHT22;5008;50.656;7.188;2023-05-10T13:25:31;16.60;99.90
9939;DHT22;5008;50.656;7.188;2023-05-10T13:27:59;16.60;99.90
9939;DHT22;5008;50.656;7.188;2023-05-10T13:30:26;16.80;99.90
9939;DHT22;5008;50.656;7.188;2023-05-10T13:32:54;17.40;99.90
9939;DHT22;5008;50.656;7.188;2023-05-10T13:35:21;17.70;99.90
9939;DHT22;5008;50.656;7.188;2023-05-10T13:37:48;17.50;99.90
9939;DHT22;5008;50.656;7.188;2023-05-10T13:40:26;17.40;99.90
9939;DHT22;5008;50.656;7.188;2023-05-10T13:42:53;17.20;99.90
9939;DHT22;5008;50.656;7.188;2023-05-10T13:45:20;16.90;99.90
9939;DHT22;5008;50.656;7.188;2023-05-10T13:47:47;16.60;99.90
9939;DHT22;5008;50.656;7.188;2023-05-10T13:50:14;16.40;99.90
9939;DHT22;5008;50.656;7.188;2023-05-10T13:52:40;16.20;99.90
9939;DHT22;5008;50.656;7.188;2023-05-10T13:55:08;16.10;99.90
9939;DHT22;5008;50.656;7.188;2023-05-10T13:57:41;16.00;99.90
9939;DHT22;5008;50.656;7.188;2023-05-10T14:00:09;15.90;99.90
9939;DHT22;5008;50.656;7.188;2023-05-10T14:02:36;15.90;99.90
9939;DHT22;5008;50.656;7.188;2023-05-10T14:05:04;15.80;99.90
9939;DHT22;5008;50.656;7.188;2023-05-10T14:07:31;15.80;99.90
9939;DHT22;5008;50.656;7.188;2023-05-10T14:09:58;15.80;99.90
9939;DHT22;5008;50.656;7.188;2023-05-10T14:12:24;15.70;99.90
9939;DHT22;5008;50.656;7.188;2023-05-10T14:14:53;15.70;99.90
9939;DHT22;5008;50.656;7.188;2023-05-10T14:17:20;15.60;99.90
9939;DHT22;5008;50.656;7.188;2023-05-10T14:19:47;15.50;99.90
9939;DHT22;5008;50.656;7.188;2023-05-10T14:22:15;15.40;99.90
9939;DHT22;5008;50.656;7.188;2023-05-10T14:24:42;15.30;99.90
9939;DHT22;5008;50.656;7.188;2023-05-10T14:27:12;15.30;99.90
9939;DHT22;5008;50.656;7.188;2023-05-10T14:29:46;15.20;99.90
9939;DHT22;5008;50.656;7.188;2023-05-10T14:32:14;15.10;99.90
9939;DHT22;5008;50.656;7.188;2023-05-10T14:34:43;15.10;99.90
9939;DHT22;5008;50.656;7.188;2023-05-10T14:37:10;15.00;99.90
9939;DHT22;5008;50.656;7.188;2023-05-10T14:39:38;15.00;99.90
9939;DHT22;5008;50.656;7.188;2023-05-10T14:42:04;15.10;99.90
9939;DHT22;5008;50.656;7.188;2023-05-10T14:44:31;15.20;99.90
9939;DHT22;5008;50.656;7.188;2023-05-10T14:46:58;15.40;99.90
9939;DHT22;5008;50.656;7.188;2023-05-10T14:49:26;15.60;99.90
9939;DHT22;5008;50.656;7.188;2023-05-10T14:51:53;15.60;99.90
9939;DHT22;5008;50.656;7.188;2023-05-10T14:54:20;15.70;99.90
9939;DHT22;5008;50.656;7.188;2023-05-10T14:56:49;15.60;99.90
9939;DHT22;5008;50.656;7.188;2023-05-10T14:59:15;15.70;99.90
9939;DHT22;5008;50.656;7.188;2023-05-10T15:01:42;15.70;99.90
9939;DHT22;5008;50.656;7.188;2023-05-10T15:04:10;15.80;99.90
9939;DHT22;5008;50.656;7.188;2023-05-10T15:06:39;15.90;99.90
9939;DHT22;5008;50.656;7.188;2023-05-10T15:09:07;16.00;99.90
9939;DHT22;5008;50.656;7.188;2023-05-10T15:11:41;16.20;99.90
9939;DHT22;5008;50.656;7.188;2023-05-10T15:14:09;16.20;99.90
9939;DHT22;5008;50.656;7.188;2023-05-10T15:16:36;16.20;99.90
9939;DHT22;5008;50.656;7.188;2023-05-10T15:19:03;16.10;99.90
9939;DHT22;5008;50.656;7.188;2023-05-10T15:21:30;16.10;99.90
9939;DHT22;5008;50.656;7.188;2023-05-10T15:24:04;16.00;99.90
9939;DHT22;5008;50.656;7.188;2023-05-10T15:26:31;16.00;99.90
9939;DHT22;5008;50.656;7.188;2023-05-10T15:28:58;16.00;99.90
9939;DHT22;5008;50.656;7.188;2023-05-10T15:31:26;15.90;99.90
9939;DHT22;5008;50.656;7.188;2023-05-10T15:33:57;15.90;99.90
9939;DHT22;5008;50.656;7.188;2023-05-10T15:36:24;15.80;99.90
9939;DHT22;5008;50.656;7.188;2023-05-10T15:38:51;15.70;99.90
9939;DHT22;5008;50.656;7.188;2023-05-10T15:41:19;15.60;99.90
9939;DHT22;5008;50.656;7.188;2023-05-10T15:43:46;15.60;99.90
9939;DHT22;5008;50.656;7.188;2023-05-10T15:46:12;15.50;99.90
9939;DHT22;5008;50.656;7.188;2023-05-10T15:48:39;15.50;99.90
9939;DHT22;5008;50.656;7.188;2023-05-10T15:51:06;15.60;99.90
9939;DHT22;5008;50.656;7.188;2023-05-10T15:53:33;15.60;99.90
9939;DHT22;5008;50.656;7.188;2023-05-10T15:56:00;15.80;99.90
9939;DHT22;5008;50.656;7.188;2023-05-10T15:58:28;15.90;99.90
9939;DHT22;5008;50.656;7.188;2023-05-10T16:00:55;16.00;99.90
9939;DHT22;5008;50.656;7.188;2023-05-10T16:03:22;16.00;99.90
9939;DHT22;5008;50.656;7.188;2023-05-10T16:05:49;16.00;99.90
9939;DHT22;5008;50.656;7.188;2023-05-10T16:08:16;15.80;99.90
9939;DHT22;5008;50.656;7.188;2023-05-10T16:10:43;15.80;99.90
9939;DHT22;5008;50.656;7.188;2023-05-10T16:13:09;15.70;99.90
9939;DHT22;5008;50.656;7.188;2023-05-10T16:15:37;15.60;99.90
9939;DHT22;5008;50.656;7.188;2023-05-10T16:18:04;15.60;99.90
9939;DHT22;5008;50.656;7.188;2023-05-10T16:20:31;15.60;99.90
9939;DHT22;5008;50.656;7.188;2023-05-10T16:23:02;15.60;99.90
9939;DHT22;5008;50.656;7.188;2023-05-10T16:25:29;15.60;99.90
9939;DHT22;5008;50.656;7.188;2023-05-10T16:27:56;15.60;99.90
9939;DHT22;5008;50.656;7.188;2023-05-10T16:30:22;15.70;99.90
9939;DHT22;5008;50.656;7.188;2023-05-10T16:32:53;16.10;99.90
9939;DHT22;5008;50.656;7.188;2023-05-10T16:35:19;16.30;99.90
9939;DHT22;5008;50.656;7.188;2023-05-10T16:37:48;16.50;99.90
9939;DHT22;5008;50.656;7.188;2023-05-10T16:40:15;16.60;99.90
9939;DHT22;5008;50.656;7.188;2023-05-10T16:42:41;16.60;99.90
9939;DHT22;5008;50.656;7.188;2023-05-10T16:45:09;16.50;99.90
9939;DHT22;5008;50.656;7.188;2023-05-10T16:47:37;16.30;99.90
9939;DHT22;5008;50.656;7.188;2023-05-10T16:50:06;16.30;99.90
9939;DHT22;5008;50.656;7.188;2023-05-10T16:52:34;16.20;99.90
9939;DHT22;5008;50.656;7.188;2023-05-10T16:55:02;16.10;99.90
9939;DHT22;5008;50.656;7.188;2023-05-10T16:57:29;16.00;99.90
9939;DHT22;5008;50.656;7.188;2023-05-10T16:59:59;16.00;99.90
9939;DHT22;5008;50.656;7.188;2023-05-10T17:02:26;15.90;99.90
9939;DHT22;5008;50.656;7.188;2023-05-10T17:04:53;15.80;99.90
9939;DHT22;5008;50.656;7.188;2023-05-10T17:07:22;15.70;99.90
9939;DHT22;5008;50.656;7.188;2023-05-10T17:09:49;15.70;99.90
9939;DHT22;5008;50.656;7.188;2023-05-10T17:12:16;15.70;99.90
9939;DHT22;5008;50.656;7.188;2023-05-10T17:14:42;15.70;99.90
9939;DHT22;5008;50.656;7.188;2023-05-10T17:17:09;15.60;99.90
9939;DHT22;5008;50.656;7.188;2023-05-10T17:19:36;15.60;99.90
9939;DHT22;5008;50.656;7.188;2023-05-10T17:22:03;15.50;99.90
9939;DHT22;5008;50.656;7.188;2023-05-10T17:24:31;15.50;99.90
9939;DHT22;5008;50.656;7.188;2023-05-10T17:26:58;15.50;99.90
9939;DHT22;5008;50.656;7.188;2023-05-10T17:29:28;15.50;99.90
9939;DHT22;5008;50.656;7.188;2023-05-10T17:31:56;15.40;99.90
9939;DHT22;5008;50.656;7.188;2023-05-10T17:34:23;15.40;99.90
9939;DHT22;5008;50.656;7.188;2023-05-10T17:36:51;15.40;99.90
9939;DHT22;5008;50.656;7.188;2023-05-10T17:39:18;15.30;99.90
9939;DHT22;5008;50.656;7.188;2023-05-10T17:41:47;15.30;99.90
9939;DHT22;5008;50.656;7.188;2023-05-10T17:44:13;15.30;99.90
9939;DHT22;5008;50.656;7.188;2023-05-10T17:46:40;15.30;99.90
9939;DHT22;5008;50.656;7.188;2023-05-10T17:49:07;15.30;99.90
9939;DHT22;5008;50.656;7.188;2023-05-10T17:51:34;15.20;99.90
9939;DHT22;5008;50.656;7.188;2023-05-10T17:54:01;15.20;99.90
9939;DHT22;5008;50.656;7.188;2023-05-10T17:56:28;15.20;99.90
9939;DHT22;5008;50.656;7.188;2023-05-10T17:58:56;15.20;99.90
9939;DHT22;5008;50.656;7.188;2023-05-10T18:04:32;15.10;99.90
9939;DHT22;5008;50.656;7.188;2023-05-10T18:06:59;15.10;99.90
9939;DHT22;5008;50.656;7.188;2023-05-10T18:09:26;15.10;99.90
9939;DHT22;5008;50.656;7.188;2023-05-10T18:11:53;15.00;99.90
9939;DHT22;5008;50.656;7.188;2023-05-10T18:14:21;15.00;99.90
9939;DHT22;5008;50.656;7.188;2023-05-10T18:16:48;15.00;99.90
9939;DHT22;5008;50.656;7.188;2023-05-10T18:19:15;14.90;99.90
9939;DHT22;5008;50.656;7.188;2023-05-10T18:21:43;14.90;99.90
9939;DHT22;5008;50.656;7.188;2023-05-10T18:24:13;14.90;99.90
9939;DHT22;5008;50.656;7.188;2023-05-10T18:26:41;14.80;99.90
9939;DHT22;5008;50.656;7.188;2023-05-10T18:29:08;14.80;99.90
9939;DHT22;5008;50.656;7.188;2023-05-10T18:31:36;14.70;99.90
9939;DHT22;5008;50.656;7.188;2023-05-10T18:34:03;14.60;99.90
9939;DHT22;5008;50.656;7.188;2023-05-10T18:36:30;14.60;99.90
9939;DHT22;5008;50.656;7.188;2023-05-10T18:38:57;14.60;99.90
9939;DHT22;5008;50.656;7.188;2023-05-10T18:41:24;14.60;99.90
9939;DHT22;5008;50.656;7.188;2023-05-10T18:43:52;14.60;99.90
9939;DHT22;5008;50.656;7.188;2023-05-10T18:46:19;14.50;99.90
9939;DHT22;5008;50.656;7.188;2023-05-10T18:48:47;14.50;99.90
9939;DHT22;5008;50.656;7.188;2023-05-10T18:51:14;14.40;99.90
9939;DHT22;5008;50.656;7.188;2023-05-10T18:53:40;14.40;99.90
9939;DHT22;5008;50.656;7.188;2023-05-10T18:56:07;14.50;99.90
9939;DHT22;5008;50.656;7.188;2023-05-10T18:58:34;14.40;99.90
9939;DHT22;5008;50.656;7.188;2023-05-10T19:01:01;14.40;99.90
9939;DHT22;5008;50.656;7.188;2023-05-10T19:03:28;14.40;99.90
9939;DHT22;5008;50.656;7.188;2023-05-10T19:05:56;14.40;99.90
9939;DHT22;5008;50.656;7.188;2023-05-10T19:08:23;14.30;99.90
9939;DHT22;5008;50.656;7.188;2023-05-10T19:10:50;14.40;99.90
9939;DHT22;5008;50.656;7.188;2023-05-10T19:13:17;14.30;99.90
9939;DHT22;5008;50.656;7.188;2023-05-10T19:15:43;14.30;99.90
9939;DHT22;5008;50.656;7.188;2023-05-10T19:18:10;14.30;99.90
9939;DHT22;5008;50.656;7.188;2023-05-10T19:20:37;14.30;99.90
9939;DHT22;5008;50.656;7.188;2023-05-10T19:23:05;14.20;99.90
9939;DHT22;5008;50.656;7.188;2023-05-10T19:25:32;14.30;99.90
9939;DHT22;5008;50.656;7.188;2023-05-10T19:27:59;14.20;99.90
9939;DHT22;5008;50.656;7.188;2023-05-10T19:30:26;14.20;99.90
9939;DHT22;5008;50.656;7.188;2023-05-10T19:32:54;14.10;99.90
9939;DHT22;5008;50.656;7.188;2023-05-10T19:35:23;14.10;99.90
9939;DHT22;5008;50.656;7.188;2023-05-10T19:37:50;14.10;99.90
9939;DHT22;5008;50.656;7.188;2023-05-10T19:40:18;14.00;99.90
9939;DHT22;5008;50.656;7.188;2023-05-10T19:42:45;14.00;99.90
9939;DHT22;5008;50.656;7.188;2023-05-10T19:45:11;14.00;99.90
9939;DHT22;5008;50.656;7.188;2023-05-10T19:47:39;14.00;99.90